Time;durP1;ratioP1;P1;durP2;ratioP2;P2;SDS_P1;SDS_P2;PMS_P1;PMS_P2;Temp;Humidity;BMP_temperature;BMP_pressure;BME280_temperature;BME280_humidity;BME280_pressure;Samples;Min_cycle;Max_cycle;Signal;HPM_P1;HPM_P2
2023/12/25 00:01:05;;;;;;;3.10;1.90;;;;;;;8.01;100.00;97361.06;109491;1251;59963;-76
2023/12/25 00:03:39;;;;;;;1.80;1.60;;;;;;;8.04;100.00;97367.35;109531;1251;66985;-77
2023/12/25 00:06:05;;;;;;;1.40;1.20;;;;;;;8.07;100.00;97369.73;109567;1251;61627;-76
2023/12/25 00:08:32;;;;;;;1.00;0.90;;;;;;;8.10;100.00;97372.00;109549;1251;65267;-76
2023/12/25 00:10:58;;;;;;;1.40;1.00;;;;;;;8.13;100.00;97368.70;109596;1251;59748;-78
2023/12/25 00:13:25;;;;;;;1.10;1.00;;;;;;;8.17;100.00;97368.92;109621;1251;59983;-76
2023/12/25 00:15:52;;;;;;;2.20;1.50;;;;;;;8.21;100.00;97363.66;109575;1250;68096;-75
2023/12/25 00:18:18;;;;;;;1.30;1.10;;;;;;;8.24;100.00;97359.16;109542;1251;61058;-76
2023/12/25 00:20:45;;;;;;;1.60;1.30;;;;;;;8.26;100.00;97356.63;109568;1251;63928;-77
2023/12/25 00:23:11;;;;;;;2.60;1.20;;;;;;;8.30;100.00;97361.77;109493;1251;59833;-77
2023/12/25 00:25:38;;;;;;;2.20;1.10;;;;;;;8.34;100.00;97353.33;109579;1251;59929;-74
2023/12/25 00:28:05;;;;;;;1.60;1.10;;;;;;;8.38;100.00;97342.20;109546;1253;67808;-76
2023/12/25 00:30:45;;;;;;;1.60;1.00;;;;;;;8.42;100.00;97337.98;109497;1252;59888;-76
2023/12/25 00:33:12;;;;;;;3.50;1.20;;;;;;;8.46;100.00;97351.80;109575;1251;65143;-74
2023/12/25 00:35:38;;;;;;;1.30;1.20;;;;;;;8.48;100.00;97341.27;109538;1251;59792;-75
2023/12/25 00:38:05;;;;;;;2.10;1.30;;;;;;;8.50;100.00;97343.70;109555;1251;59865;-75
2023/12/25 00:40:31;;;;;;;1.40;0.90;;;;;;;8.54;100.00;97355.17;109600;1251;67270;-77
2023/12/25 00:42:58;;;;;;;1.10;1.00;;;;;;;8.58;100.00;97359.09;109552;1250;60098;-75
2023/12/25 00:45:24;;;;;;;1.30;0.90;;;;;;;8.63;100.00;97355.88;109521;1251;65077;-76
2023/12/25 00:47:51;;;;;;;1.00;0.90;;;;;;;8.66;100.00;97368.54;109580;1251;59773;-75
2023/12/25 00:50:18;;;;;;;1.40;0.90;;;;;;;8.71;100.00;97370.77;109596;1251;59810;-75
2023/12/25 00:52:44;;;;;;;0.90;0.80;;;;;;;8.76;100.00;97366.81;109573;1251;68092;-77
2023/12/25 00:55:11;;;;;;;0.60;0.60;;;;;;;8.83;100.00;97369.79;109330;1254;61242;-76
2023/12/25 00:57:38;;;;;;;0.70;0.60;;;;;;;8.89;100.00;97366.91;109295;1254;65188;-77
2023/12/25 01:00:05;;;;;;;1.10;0.80;;;;;;;8.94;100.00;97368.09;109320;1254;60198;-76
2023/12/25 01:02:32;;;;;;;1.40;1.00;;;;;;;8.99;100.00;97359.16;109334;1254;59851;-75
2023/12/25 01:04:58;;;;;;;1.10;0.70;;;;;;;9.00;100.00;97365.05;109346;1254;68340;-76
2023/12/25 01:07:25;;;;;;;1.40;0.80;;;;;;;9.00;100.00;97368.40;109332;1254;61032;-75
2023/12/25 01:09:51;;;;;;;0.80;0.80;;;;;;;9.04;100.00;97374.02;109285;1254;65211;-77
2023/12/25 01:12:18;;;;;;;1.80;0.80;;;;;;;9.07;100.00;97372.10;109127;1253;59831;-76
2023/12/25 01:14:45;;;;;;;1.00;0.90;;;;;;;9.10;100.00;97375.04;109317;1254;59872;-75
2023/12/25 01:17:11;;;;;;;1.00;0.70;;;;;;;9.13;100.00;97369.82;109304;1254;67832;-76
2023/12/25 01:19:38;;;;;;;0.70;0.70;;;;;;;9.17;100.00;97384.70;109314;1254;61227;-77
2023/12/25 01:22:04;;;;;;;0.70;0.60;;;;;;;9.23;100.00;97386.84;109160;1254;64789;-76
2023/12/25 01:24:31;;;;;;;0.90;0.80;;;;;;;9.27;100.00;97380.88;109315;1254;59716;-77
2023/12/25 01:26:57;;;;;;;1.30;0.50;;;;;;;9.30;100.00;97395.30;109190;1251;59874;-76
2023/12/25 01:29:24;;;;;;;2.80;0.60;;;;;;;9.34;100.00;97400.57;109556;1251;67842;-77
2023/12/25 01:31:51;;;;;;;1.20;0.60;;;;;;;9.39;100.00;97407.36;109574;1250;60257;-75
2023/12/25 01:34:18;;;;;;;1.40;1.30;;;;;;;9.43;100.00;97412.75;109564;1251;65105;-77
2023/12/25 01:36:45;;;;;;;1.50;0.70;;;;;;;9.45;100.00;97411.27;109509;1251;60203;-74
2023/12/25 01:39:14;;;;;;;0.70;0.50;;;;;;;9.48;100.00;97418.67;109548;1251;60215;-78
2023/12/25 01:41:41;;;;;;;0.90;0.50;;;;;;;9.51;100.00;97415.23;109611;1251;68097;-77
2023/12/25 01:44:07;;;;;;;0.50;0.50;;;;;;;9.53;100.00;97409.88;109526;1251;60043;-78
2023/12/25 01:46:34;;;;;;;1.30;0.60;;;;;;;9.55;100.00;97419.65;109547;1251;64093;-77
2023/12/25 01:49:01;;;;;;;1.50;0.70;;;;;;;9.55;100.00;97429.79;109485;1251;59756;-77
2023/12/25 01:51:28;;;;;;;0.70;0.50;;;;;;;9.54;100.00;97430.63;109598;1251;59850;-75
2023/12/25 01:53:54;;;;;;;1.50;0.40;;;;;;;9.56;100.00;97433.10;109556;1252;67609;-78
2023/12/25 01:56:21;;;;;;;0.70;0.70;;;;;;;9.56;100.00;97403.23;109568;1251;60252;-76
2023/12/25 01:58:48;;;;;;;0.80;0.80;;;;;;;9.58;100.00;97403.65;109587;1251;64012;-76
2023/12/25 02:01:14;;;;;;;0.60;0.60;;;;;;;9.61;100.00;97408.81;109527;1251;60069;-77
2023/12/25 02:03:41;;;;;;;0.80;0.70;;;;;;;9.63;100.00;97410.27;109577;1251;59938;-77
2023/12/25 02:06:08;;;;;;;0.90;0.60;;;;;;;9.64;100.00;97407.70;109555;1250;67785;-77
2023/12/25 02:08:35;;;;;;;0.80;0.70;;;;;;;9.64;100.00;97402.18;109517;1250;60980;-76
2023/12/25 02:11:04;;;;;;;0.50;0.50;;;;;;;9.65;100.00;97410.98;109607;1251;65390;-77
2023/12/25 02:13:31;;;;;;;0.70;0.60;;;;;;;9.67;100.00;97409.85;109524;1251;59806;-76
2023/12/25 02:15:59;;;;;;;0.50;0.50;;;;;;;9.72;100.00;97406.63;109565;1251;59816;-77
2023/12/25 02:18:26;;;;;;;0.90;0.70;;;;;;;9.73;100.00;97404.76;109556;1251;67563;-76
2023/12/25 02:20:53;;;;;;;0.70;0.70;;;;;;;9.74;100.00;97415.53;109325;1251;61020;-77
2023/12/25 02:23:24;;;;;;;0.60;0.50;;;;;;;9.75;100.00;97420.18;109587;1251;65098;-76
2023/12/25 02:25:56;;;;;;;1.00;0.40;;;;;;;9.77;100.00;97418.06;109523;1251;60682;-77
2023/12/25 02:28:22;;;;;;;0.60;0.40;;;;;;;9.79;100.00;97413.33;109533;1251;60009;-77
2023/12/25 02:30:51;;;;;;;0.60;0.60;;;;;;;9.80;100.00;97406.48;109568;1251;67887;-75
2023/12/25 02:33:17;;;;;;;0.40;0.30;;;;;;;9.81;100.00;97404.27;109539;1251;60074;-77
2023/12/25 02:35:44;;;;;;;0.80;0.60;;;;;;;9.83;100.00;97405.64;109508;1251;64111;-75
2023/12/25 02:38:10;;;;;;;0.60;0.60;;;;;;;9.86;100.00;97405.36;109561;1250;59949;-75
2023/12/25 02:40:40;;;;;;;0.30;0.30;;;;;;;9.92;100.00;97404.45;109396;1251;59781;-75
2023/12/25 02:43:08;;;;;;;0.80;0.60;;;;;;;9.96;100.00;97406.79;109605;1251;66804;-76
2023/12/25 02:45:34;;;;;;;0.90;0.60;;;;;;;9.97;100.00;97406.70;109549;1254;61046;-74
2023/12/25 02:48:01;;;;;;;1.90;0.60;;;;;;;9.99;100.00;97415.02;109556;1251;63995;-74
2023/12/25 02:50:27;;;;;;;0.60;0.60;;;;;;;10.00;100.00;97421.30;109535;1251;59834;-75
2023/12/25 02:52:54;;;;;;;0.40;0.30;;;;;;;10.00;100.00;97423.28;109580;1251;59951;-76
2023/12/25 02:55:21;;;;;;;0.70;0.40;;;;;;;9.99;100.00;97432.48;109555;1251;68333;-75
2023/12/25 02:57:48;;;;;;;0.40;0.40;;;;;;;9.99;100.00;97434.58;109540;1251;60917;-76
2023/12/25 03:00:33;;;;;;;0.50;0.50;;;;;;;9.98;100.00;97433.76;109549;1251;65147;-76
2023/12/25 03:02:59;;;;;;;0.50;0.50;;;;;;;9.94;100.00;97420.81;109522;1251;59758;-76
2023/12/25 03:05:26;;;;;;;0.70;0.50;;;;;;;9.93;100.00;97429.98;109535;1251;59769;-74
2023/12/25 03:07:52;;;;;;;0.90;0.50;;;;;;;9.93;100.00;97422.84;109546;1251;66746;-75
2023/12/25 03:10:19;;;;;;;1.10;0.70;;;;;;;9.90;100.00;97428.97;109606;1251;61119;-76
2023/12/25 03:12:46;;;;;;;1.00;0.60;;;;;;;9.90;100.00;97426.80;109553;1251;64183;-74
2023/12/25 03:15:12;;;;;;;0.60;0.60;;;;;;;9.91;100.00;97418.57;109532;1251;60062;-75
2023/12/25 03:17:39;;;;;;;0.40;0.40;;;;;;;9.93;100.00;97414.67;109584;1251;60114;-75
2023/12/25 03:20:06;;;;;;;0.70;0.50;;;;;;;9.94;100.00;97420.65;109558;1251;67927;-77
2023/12/25 03:22:32;;;;;;;1.50;0.50;;;;;;;9.94;100.00;97422.41;109561;1251;59971;-77
2023/12/25 03:25:00;;;;;;;0.60;0.60;;;;;;;9.96;100.00;97417.80;109559;1251;65246;-75
2023/12/25 03:27:26;;;;;;;0.80;0.60;;;;;;;9.98;100.00;97417.41;109517;1251;59825;-75
2023/12/25 03:29:53;;;;;;;0.40;0.40;;;;;;;10.02;100.00;97421.52;109580;1251;59781;-76
2023/12/25 03:32:20;;;;;;;0.70;0.50;;;;;;;10.06;100.00;97426.45;109555;1251;66771;-76
2023/12/25 03:34:47;;;;;;;0.30;0.30;;;;;;;10.11;100.00;97428.70;109560;1251;61293;-75
2023/12/25 03:37:15;;;;;;;0.40;0.40;;;;;;;10.12;100.00;97434.96;109546;1251;63781;-76
2023/12/25 03:39:41;;;;;;;0.60;0.40;;;;;;;10.15;100.00;97436.17;109511;1251;59780;-75
2023/12/25 03:42:08;;;;;;;0.50;0.40;;;;;;;10.16;100.00;97427.38;109527;1251;59797;-75
2023/12/25 03:44:51;;;;;;;1.10;0.50;;;;;;;10.17;100.00;97433.33;109581;1251;66544;-76
2023/12/25 03:47:20;;;;;;;1.00;0.50;;;;;;;10.19;100.00;97438.61;109531;1250;61092;-76
2023/12/25 03:49:46;;;;;;;0.50;0.50;;;;;;;10.22;100.00;97439.77;109524;1251;65030;-75
2023/12/25 03:52:13;;;;;;;1.40;0.50;;;;;;;10.24;100.00;97443.49;109395;1251;59855;-75
2023/12/25 03:54:39;;;;;;;0.40;0.40;;;;;;;10.26;100.00;97445.12;109589;1251;59932;-76
2023/12/25 03:57:08;;;;;;;0.70;0.50;;;;;;;10.25;100.00;97450.11;109396;1251;105804;-76
2023/12/25 03:59:52;;;;;;;0.40;0.30;;;;;;;10.25;100.00;97449.77;109575;1251;59977;-76
2023/12/25 04:02:18;;;;;;;0.30;0.30;;;;;;;10.27;100.00;97450.54;109538;1251;65106;-76
2023/12/25 04:04:45;;;;;;;0.80;0.40;;;;;;;10.26;100.00;97458.91;109277;1251;60149;-76
2023/12/25 04:07:11;;;;;;;1.00;0.30;;;;;;;10.26;100.00;97455.73;109537;1251;61802;-76
2023/12/25 04:09:38;;;;;;;0.70;0.40;;;;;;;10.28;100.00;97454.03;109538;1251;67767;-76
2023/12/25 04:12:05;;;;;;;0.40;0.30;;;;;;;10.29;100.00;97458.34;109350;1251;60844;-76
2023/12/25 04:14:31;;;;;;;0.60;0.30;;;;;;;10.30;100.00;97466.05;109546;1251;64998;-76
2023/12/25 04:16:58;;;;;;;0.40;0.40;;;;;;;10.30;100.00;97471.23;109526;1251;59763;-75
2023/12/25 04:19:24;;;;;;;0.40;0.40;;;;;;;10.28;100.00;97469.77;109537;1251;59694;-76
2023/12/25 04:21:51;;;;;;;0.70;0.30;;;;;;;10.26;100.00;97476.02;109514;1251;66817;-75
2023/12/25 04:24:17;;;;;;;0.90;0.50;;;;;;;10.23;100.00;97474.80;109549;1251;60203;-75
2023/12/25 04:26:44;;;;;;;0.50;0.50;;;;;;;10.20;100.00;97470.80;109532;1251;59889;-75
2023/12/25 04:29:10;;;;;;;0.40;0.30;;;;;;;10.19;100.00;97475.92;109503;1251;59760;-76
2023/12/25 04:31:37;;;;;;;1.00;0.40;;;;;;;10.18;100.00;97485.01;109542;1251;59815;-76
2023/12/25 04:34:04;;;;;;;1.20;0.30;;;;;;;10.18;100.00;97495.02;109572;1250;68105;-76
2023/12/25 04:36:30;;;;;;;0.30;0.30;;;;;;;10.17;100.00;97488.83;109545;1251;61113;-74
2023/12/25 04:38:58;;;;;;;0.40;0.40;;;;;;;10.16;100.00;97490.59;109555;1251;65096;-76
2023/12/25 04:41:24;;;;;;;1.20;0.30;;;;;;;10.16;100.00;97499.77;109541;1251;59879;-76
2023/12/25 04:43:51;;;;;;;0.30;0.30;;;;;;;10.17;100.00;97506.56;109407;1251;59766;-75
2023/12/25 04:46:19;;;;;;;0.80;0.50;;;;;;;10.18;100.00;97508.11;109540;1251;66707;-76
2023/12/25 04:48:46;;;;;;;0.50;0.20;;;;;;;10.17;100.00;97508.75;109443;1251;60077;-77
2023/12/25 04:51:12;;;;;;;0.50;0.40;;;;;;;10.19;100.00;97515.32;109509;1251;64038;-75
2023/12/25 04:53:39;;;;;;;0.90;0.40;;;;;;;10.20;100.00;97513.14;109551;1251;59996;-75
2023/12/25 04:56:10;;;;;;;0.30;0.30;;;;;;;10.20;100.00;97518.80;109615;1251;59801;-76
2023/12/25 04:58:37;;;;;;;0.70;0.40;;;;;;;10.20;100.00;97515.23;109489;1251;68129;-77
2023/12/25 05:01:04;;;;;;;0.70;0.40;;;;;;;10.22;100.00;97520.16;109226;1250;60570;-76
2023/12/25 05:03:31;;;;;;;0.50;0.20;;;;;;;10.23;100.00;97524.66;109540;1251;65235;-76
2023/12/25 05:05:59;;;;;;;0.90;0.40;;;;;;;10.24;100.00;97520.56;109502;1251;59800;-76
2023/12/25 05:08:25;;;;;;;0.50;0.30;;;;;;;10.25;100.00;97523.85;109581;1251;59668;-76
2023/12/25 05:10:52;;;;;;;0.50;0.50;;;;;;;10.24;100.00;97542.16;109543;1251;66912;-76
2023/12/25 05:13:18;;;;;;;0.90;0.40;;;;;;;10.26;100.00;97540.05;109593;1251;60089;-76
2023/12/25 05:15:45;;;;;;;2.10;0.40;;;;;;;10.25;100.00;97537.10;109550;1251;64011;-77
2023/12/25 05:18:12;;;;;;;0.70;0.60;;;;;;;10.26;100.00;97533.12;109546;1251;59852;-76
2023/12/25 05:20:56;;;;;;;1.20;0.60;;;;;;;10.26;100.00;97527.27;109593;1251;59652;-75
2023/12/25 05:23:22;;;;;;;0.60;0.60;;;;;;;10.27;100.00;97529.35;109575;1251;68010;-75
2023/12/25 05:25:49;;;;;;;0.30;0.30;;;;;;;10.29;100.00;97534.98;109556;1251;61090;-76
2023/12/25 05:28:15;;;;;;;0.60;0.60;;;;;;;10.31;100.00;97541.04;109548;1251;65343;-77
2023/12/25 05:30:42;;;;;;;0.50;0.50;;;;;;;10.33;100.00;97548.83;109539;1251;60058;-74
2023/12/25 05:33:09;;;;;;;0.30;0.30;;;;;;;10.36;100.00;97549.20;109356;1251;59809;-74
2023/12/25 05:35:35;;;;;;;1.00;0.30;;;;;;;10.37;100.00;97541.64;109574;1251;68104;-75
2023/12/25 05:38:02;;;;;;;0.50;0.30;;;;;;;10.37;100.00;97532.59;109550;1251;61003;-75
2023/12/25 05:40:29;;;;;;;0.30;0.20;;;;;;;10.37;100.00;97538.92;109526;1251;65202;-76
2023/12/25 05:42:55;;;;;;;0.30;0.30;;;;;;;10.37;100.00;97545.89;109550;1253;59862;-77
2023/12/25 05:45:23;;;;;;;0.80;0.30;;;;;;;10.34;100.00;97551.61;109240;1251;59873;-77
2023/12/25 05:47:49;;;;;;;0.50;0.30;;;;;;;10.33;100.00;97556.52;109613;1251;67851;-77
2023/12/25 05:50:16;;;;;;;1.50;0.30;;;;;;;10.34;100.00;97561.02;109526;1251;60222;-75
2023/12/25 05:52:42;;;;;;;0.40;0.30;;;;;;;10.33;100.00;97553.77;109566;1251;65012;-76
2023/12/25 05:55:09;;;;;;;0.40;0.40;;;;;;;10.34;100.00;97547.88;109509;1251;59921;-77
2023/12/25 05:57:35;;;;;;;0.40;0.40;;;;;;;10.33;100.00;97544.73;109567;1251;59647;-75
2023/12/25 06:00:04;;;;;;;1.20;0.60;;;;;;;10.33;100.00;97538.59;109570;1251;66781;-75
2023/12/25 06:02:31;;;;;;;0.80;0.60;;;;;;;10.31;100.00;97523.08;109336;1251;61457;-75
2023/12/25 06:04:57;;;;;;;1.60;0.50;;;;;;;10.30;100.00;97529.61;109378;1254;60144;-75
2023/12/25 06:07:24;;;;;;;0.60;0.40;;;;;;;10.28;100.00;97542.17;109474;1251;59844;-76
2023/12/25 06:09:51;;;;;;;0.50;0.50;;;;;;;10.27;100.00;97546.73;109513;1256;59865;-75
2023/12/25 06:12:17;;;;;;;0.80;0.70;;;;;;;10.24;100.00;97551.73;109560;1251;66722;-75
2023/12/25 06:14:44;;;;;;;0.60;0.60;;;;;;;10.27;100.00;97550.67;109524;1251;61052;-75
2023/12/25 06:17:10;;;;;;;1.10;0.60;;;;;;;10.29;100.00;97552.19;109517;1251;63997;-76
2023/12/25 06:19:37;;;;;;;1.00;0.40;;;;;;;10.31;100.00;97555.58;109539;1250;59752;-75
2023/12/25 06:22:03;;;;;;;1.30;0.50;;;;;;;10.30;100.00;97554.59;109557;1251;59852;-75
2023/12/25 06:24:30;;;;;;;0.80;0.40;;;;;;;10.31;100.00;97558.08;109556;1251;67828;-74
2023/12/25 06:26:57;;;;;;;0.60;0.40;;;;;;;10.33;100.00;97558.25;109567;1251;60190;-77
2023/12/25 06:29:23;;;;;;;0.50;0.40;;;;;;;10.37;100.00;97552.79;109521;1254;64202;-74
2023/12/25 06:31:50;;;;;;;1.10;0.70;;;;;;;10.38;100.00;97556.20;109549;1251;59727;-76
2023/12/25 06:34:16;;;;;;;1.40;0.50;;;;;;;10.40;100.00;97561.54;109538;1251;59919;-76
2023/12/25 06:36:43;;;;;;;0.90;0.50;;;;;;;10.42;100.00;97544.73;109563;1251;60539;-77
2023/12/25 06:39:10;;;;;;;0.50;0.40;;;;;;;10.43;100.00;97551.50;109534;1255;61572;-76
2023/12/25 06:41:36;;;;;;;0.60;0.50;;;;;;;10.46;100.00;97558.88;109530;1251;60527;-76
2023/12/25 06:44:03;;;;;;;0.40;0.40;;;;;;;10.46;100.00;97570.27;109549;1251;59761;-76
2023/12/25 06:46:29;;;;;;;0.80;0.50;;;;;;;10.46;100.00;97571.00;109636;1251;59973;-75
2023/12/25 06:48:56;;;;;;;1.00;0.70;;;;;;;10.48;100.00;97581.66;109517;1251;67896;-76
2023/12/25 06:51:22;;;;;;;1.00;0.90;;;;;;;10.46;100.00;97585.48;109542;1251;60122;-76
2023/12/25 06:53:50;;;;;;;0.90;0.70;;;;;;;10.44;100.00;97602.78;109267;1251;65110;-76
2023/12/25 06:56:16;;;;;;;1.00;0.60;;;;;;;10.42;100.00;97613.27;109563;1251;59803;-77
2023/12/25 06:58:43;;;;;;;0.90;0.60;;;;;;;10.39;100.00;97613.89;109524;1251;59797;-75
2023/12/25 07:01:10;;;;;;;2.30;0.70;;;;;;;10.37;100.00;97610.27;109344;1251;65601;-76
2023/12/25 07:03:36;;;;;;;1.90;0.70;;;;;;;10.36;100.00;97605.64;109578;1251;60994;-75
2023/12/25 07:06:07;;;;;;;0.50;0.50;;;;;;;10.32;100.00;97601.30;109520;1251;65010;-75
2023/12/25 07:08:34;;;;;;;1.00;0.60;;;;;;;10.31;100.00;97599.06;109512;1253;59826;-76
2023/12/25 07:11:00;;;;;;;0.60;0.60;;;;;;;10.31;100.00;97597.68;109563;1254;59766;-76
2023/12/25 07:13:27;;;;;;;0.90;0.50;;;;;;;10.31;100.00;97596.81;109490;1255;67506;-75
2023/12/25 07:15:53;;;;;;;1.80;1.00;;;;;;;10.33;100.00;97593.77;109605;1251;60201;-76
2023/12/25 07:18:20;;;;;;;0.60;0.50;;;;;;;10.35;100.00;97590.58;109319;1251;64040;-77
2023/12/25 07:20:46;;;;;;;0.70;0.60;;;;;;;10.38;100.00;97602.42;109520;1251;59783;-76
2023/12/25 07:23:13;;;;;;;0.50;0.50;;;;;;;10.40;100.00;97616.22;109329;1251;59857;-76
2023/12/25 07:25:40;;;;;;;0.70;0.40;;;;;;;10.44;100.00;97604.38;109599;1254;66973;-77
2023/12/25 07:28:08;;;;;;;1.50;0.60;;;;;;;10.48;100.00;97597.64;109557;1251;60092;-76
2023/12/25 07:30:34;;;;;;;1.20;0.40;;;;;;;10.50;100.00;97604.48;109490;1251;64027;-77
2023/12/25 07:33:01;;;;;;;2.50;0.70;;;;;;;10.54;100.00;97612.70;109500;1251;59754;-75
2023/12/25 07:35:28;;;;;;;0.80;0.60;;;;;;;10.58;100.00;97608.10;109557;1251;59858;-77
2023/12/25 07:37:55;;;;;;;0.90;0.60;;;;;;;10.59;100.00;97607.30;109514;1251;67565;-76
2023/12/25 07:40:21;;;;;;;0.90;0.60;;;;;;;10.61;100.00;97619.02;109537;1251;61106;-76
2023/12/25 07:42:48;;;;;;;1.00;0.50;;;;;;;10.60;100.00;97623.54;109337;1251;64001;-75
2023/12/25 07:45:15;;;;;;;0.80;0.60;;;;;;;10.59;100.00;97619.73;109547;1251;59733;-74
2023/12/25 07:47:41;;;;;;;0.60;0.40;;;;;;;10.61;100.00;97619.56;109526;1255;59851;-75
2023/12/25 07:50:08;;;;;;;0.90;0.70;;;;;;;10.66;100.00;97612.54;109540;1251;66947;-75
2023/12/25 07:52:35;;;;;;;2.10;1.00;;;;;;;10.73;100.00;97610.30;109577;1251;61126;-74
2023/12/25 07:55:02;;;;;;;1.70;1.00;;;;;;;10.81;100.00;97611.52;109562;1251;65019;-75
2023/12/25 07:57:29;;;;;;;1.50;1.40;;;;;;;10.88;100.00;97607.91;109581;1251;59912;-75
2023/12/25 07:59:56;;;;;;;1.20;0.90;;;;;;;10.92;100.00;97611.08;109491;1251;59971;-76
2023/12/25 08:02:24;;;;;;;0.80;0.80;;;;;;;10.94;100.00;97619.59;109606;1251;67971;-76
2023/12/25 08:04:50;;;;;;;0.80;0.70;;;;;;;10.95;100.00;97622.90;109563;1251;61456;-76
2023/12/25 08:07:17;;;;;;;0.80;0.60;;;;;;;10.93;100.00;97620.88;109481;1251;65114;-76
2023/12/25 08:09:43;;;;;;;0.60;0.50;;;;;;;10.93;100.00;97621.98;109527;1251;59842;-76
2023/12/25 08:12:10;;;;;;;2.30;0.90;;;;;;;10.94;100.00;97629.17;109566;1251;59963;-76
2023/12/25 08:14:36;;;;;;;2.10;0.70;;;;;;;10.95;100.00;97617.85;109633;1251;67797;-77
2023/12/25 08:17:03;;;;;;;0.90;0.70;;;;;;;10.96;100.00;97619.22;109520;1251;61127;-78
2023/12/25 08:19:30;;;;;;;1.90;0.80;;;;;;;10.95;100.00;97615.19;109515;1251;72688;-76
2023/12/25 08:21:56;;;;;;;1.60;1.00;;;;;;;10.96;100.00;97610.70;109554;1252;59808;-77
2023/12/25 08:24:25;;;;;;;1.20;1.00;;;;;;;10.96;100.00;97610.70;109502;1251;59837;-76
2023/12/25 08:26:51;;;;;;;2.20;1.20;;;;;;;10.96;100.00;97621.16;109545;1251;67822;-76
2023/12/25 08:29:19;;;;;;;1.90;0.90;;;;;;;10.97;100.00;97619.45;109561;1251;61260;-76
2023/12/25 08:31:45;;;;;;;1.00;0.80;;;;;;;10.98;100.00;97623.33;109506;1251;65462;-77
2023/12/25 08:34:12;;;;;;;1.40;0.90;;;;;;;10.97;100.00;97627.30;109537;1251;59737;-76
2023/12/25 08:36:38;;;;;;;2.00;1.30;;;;;;;10.98;100.00;97635.25;109566;1251;59885;-76
2023/12/25 08:39:05;;;;;;;2.00;0.90;;;;;;;10.97;100.00;97643.13;109544;1251;67798;-77
2023/12/25 08:41:31;;;;;;;1.70;1.10;;;;;;;10.94;100.00;97644.51;109612;1251;60122;-78
2023/12/25 08:43:58;;;;;;;2.00;1.30;;;;;;;10.92;100.00;97649.45;109538;1251;64088;-78
2023/12/25 08:46:25;;;;;;;1.30;1.00;;;;;;;10.93;100.00;97648.46;109549;1251;59735;-78
2023/12/25 08:48:51;;;;;;;1.40;0.90;;;;;;;10.96;100.00;97653.31;109595;1251;59964;-77
2023/12/25 08:51:18;;;;;;;1.10;1.00;;;;;;;11.01;100.00;97653.65;109513;1251;66709;-77
2023/12/25 08:53:44;;;;;;;2.00;1.10;;;;;;;11.04;100.00;97649.11;109500;1251;61209;-78
2023/12/25 08:56:11;;;;;;;1.10;1.00;;;;;;;11.08;100.00;97647.47;109526;1251;65003;-78
2023/12/25 08:58:39;;;;;;;1.60;1.20;;;;;;;11.11;100.00;97645.10;109555;1251;59932;-76
2023/12/25 09:01:06;;;;;;;1.70;1.00;;;;;;;11.11;100.00;97639.18;109561;1254;59821;-75
2023/12/25 09:03:33;;;;;;;1.10;0.80;;;;;;;11.15;100.00;97645.81;109571;1251;67818;-75
2023/12/25 09:05:59;;;;;;;1.80;1.00;;;;;;;11.18;100.00;97648.86;109566;1251;61239;-76
2023/12/25 09:08:26;;;;;;;2.00;1.20;;;;;;;11.23;100.00;97648.98;109394;1251;65376;-73
2023/12/25 09:10:52;;;;;;;1.10;0.90;;;;;;;11.28;100.00;97644.38;109464;1254;59812;-76
2023/12/25 09:13:19;;;;;;;1.60;1.00;;;;;;;11.33;100.00;97638.86;109526;1251;61507;-75
2023/12/25 09:15:45;;;;;;;1.70;1.30;;;;;;;11.35;100.00;97640.54;109542;1251;66606;-76
2023/12/25 09:18:12;;;;;;;2.40;1.50;;;;;;;11.36;100.00;97647.36;109532;1251;61001;-77
2023/12/25 09:20:38;;;;;;;9.10;4.10;;;;;;;11.36;100.00;97648.83;109200;1251;64679;-77
2023/12/25 09:23:05;;;;;;;8.50;4.00;;;;;;;11.40;100.00;97649.70;109520;1251;60010;-77
2023/12/25 09:25:32;;;;;;;8.30;3.80;;;;;;;11.47;100.00;97643.39;109573;1251;60569;-75
2023/12/25 09:27:58;;;;;;;11.30;6.80;;;;;;;11.50;100.00;97645.56;109542;1251;67795;-77
2023/12/25 09:30:25;;;;;;;4.70;3.10;;;;;;;11.51;100.00;97652.27;109541;1251;60273;-77
2023/12/25 09:32:52;;;;;;;5.60;4.40;;;;;;;11.51;100.00;97653.73;109544;1251;64049;-75
2023/12/25 09:35:18;;;;;;;6.50;4.10;;;;;;;11.49;100.00;97653.31;109537;1251;59792;-75
2023/12/25 09:37:45;;;;;;;4.40;2.60;;;;;;;11.50;100.00;97641.65;109372;1251;59757;-76
2023/12/25 09:40:12;;;;;;;3.70;2.00;;;;;;;11.53;100.00;97640.91;109369;1251;67497;-78
2023/12/25 09:42:39;;;;;;;1.20;1.00;;;;;;;11.55;100.00;97647.98;109551;1251;61041;-76
2023/12/25 09:45:09;;;;;;;2.50;1.90;;;;;;;11.58;100.00;97651.42;109595;1251;64035;-76
2023/12/25 09:47:36;;;;;;;2.30;1.90;;;;;;;11.61;100.00;97649.90;109544;1251;59738;-75
2023/12/25 09:50:04;;;;;;;3.40;2.10;;;;;;;11.63;100.00;97656.50;109507;1251;59837;-73
2023/12/25 09:52:31;;;;;;;1.60;1.30;;;;;;;11.61;100.00;97663.97;109570;1251;67828;-77
2023/12/25 09:54:57;;;;;;;1.30;1.00;;;;;;;11.58;100.00;97663.92;109517;1251;61216;-76
2023/12/25 09:57:26;;;;;;;2.40;1.60;;;;;;;11.56;100.00;97659.73;109548;1251;64190;-76
2023/12/25 09:59:55;;;;;;;2.80;0.90;;;;;;;11.54;100.00;97662.49;109578;1251;59797;-74
2023/12/25 10:02:44;;;;;;;2.90;1.40;;;;;;;11.53;100.00;97664.90;109532;1251;59819;-75
2023/12/25 10:05:12;;;;;;;3.10;1.70;;;;;;;11.51;100.00;97662.23;109511;1251;66925;-76
2023/12/25 10:07:38;;;;;;;3.00;1.70;;;;;;;11.46;100.00;97659.46;109579;1250;60031;-77
2023/12/25 10:10:05;;;;;;;1.40;1.10;;;;;;;11.41;100.00;97661.03;109547;1251;65122;-76
2023/12/25 10:12:32;;;;;;;1.20;1.10;;;;;;;11.41;100.00;97657.80;109106;1251;59802;-76
2023/12/25 10:14:58;;;;;;;1.30;1.00;;;;;;;11.41;100.00;97662.20;109342;1251;60169;-77
2023/12/25 10:17:25;;;;;;;2.60;1.20;;;;;;;11.40;100.00;97663.70;109550;1251;66747;-77
2023/12/25 10:19:57;;;;;;;2.10;1.20;;;;;;;11.39;100.00;97667.77;109552;1251;61008;-74
2023/12/25 10:22:34;;;;;;;2.80;1.50;;;;;;;11.37;100.00;97658.85;109505;1251;65364;-75
2023/12/25 10:25:09;;;;;;;1.50;1.30;;;;;;;11.35;100.00;97664.74;109457;1251;59826;-77
2023/12/25 10:27:38;;;;;;;2.50;1.30;;;;;;;11.32;100.00;97667.35;109549;1251;59843;-75
2023/12/25 10:30:14;;;;;;;1.30;1.10;;;;;;;11.31;100.00;97659.64;109617;1251;67817;-76
2023/12/25 10:32:40;;;;;;;1.90;1.00;;;;;;;11.30;100.00;97669.48;109584;1250;60180;-76
2023/12/25 10:35:13;;;;;;;1.30;0.90;;;;;;;11.29;100.00;97673.49;109559;1251;64064;-77
2023/12/25 10:37:41;;;;;;;1.90;1.20;;;;;;;11.30;100.00;97668.36;109508;1250;59756;-75
2023/12/25 10:40:19;;;;;;;1.90;1.30;;;;;;;11.32;100.00;97672.48;109528;1251;60095;-74
2023/12/25 10:42:48;;;;;;;1.20;1.10;;;;;;;11.33;100.00;97678.64;109525;1251;66865;-77
2023/12/25 10:45:22;;;;;;;2.30;1.70;;;;;;;11.34;100.00;97674.07;109609;1251;61122;-75
2023/12/25 10:47:57;;;;;;;2.40;1.30;;;;;;;11.37;100.00;97677.58;109549;1251;65192;-77
2023/12/25 10:50:32;;;;;;;1.90;1.00;;;;;;;11.39;100.00;97667.98;109541;1251;59747;-76
2023/12/25 10:53:01;;;;;;;1.30;0.80;;;;;;;11.43;100.00;97663.33;109580;1251;59927;-75
2023/12/25 10:55:38;;;;;;;1.40;1.10;;;;;;;11.46;100.00;97663.42;109545;1251;67905;-76
2023/12/25 10:58:07;;;;;;;1.80;1.10;;;;;;;11.48;100.00;97667.87;109621;1251;61435;-78
2023/12/25 11:00:41;;;;;;;1.80;1.50;;;;;;;11.49;100.00;97670.21;109507;1251;64024;-76
2023/12/25 11:03:10;;;;;;;2.10;1.20;;;;;;;11.50;100.00;97663.57;109549;1251;60237;-76
2023/12/25 11:05:39;;;;;;;2.20;1.10;;;;;;;11.48;100.00;97659.89;109566;1251;60536;-75
2023/12/25 11:08:06;;;;;;;3.30;0.90;;;;;;;11.44;100.00;97667.15;109530;1251;66781;-76
2023/12/25 11:10:33;;;;;;;1.20;0.90;;;;;;;11.40;100.00;97668.03;109552;1251;59838;-75
2023/12/25 11:13:00;;;;;;;1.70;1.20;;;;;;;11.37;100.00;97663.09;109525;1251;65237;-77
2023/12/25 11:15:27;;;;;;;1.60;0.90;;;;;;;11.37;100.00;97659.75;109515;1251;59854;-77
2023/12/25 11:17:54;;;;;;;3.40;2.10;;;;;;;11.40;100.00;97663.59;109526;1251;59670;-76
2023/12/25 11:20:21;;;;;;;2.10;1.50;;;;;;;11.45;100.00;97670.91;109496;1251;67785;-77